createdAt,value
2022-12-24T00:00:37.667Z,91.03
2022-12-24T00:01:37.595Z,90.92
2022-12-24T00:02:37.747Z,90.82
2022-12-24T00:03:37.632Z,90.82
2022-12-24T00:04:37.584Z,91.23
2022-12-24T00:05:37.556Z,91.27
2022-12-24T00:06:37.540Z,91.78
2022-12-24T00:07:38.553Z,92.05
2022-12-24T00:08:37.535Z,91.89
2022-12-24T00:09:37.553Z,91.89
2022-12-24T00:10:37.532Z,92.10
2022-12-24T00:11:37.512Z,92.19
2022-12-24T00:12:37.520Z,92.40
2022-12-24T00:13:37.492Z,92.91
2022-12-24T00:14:37.501Z,93.01
2022-12-24T00:15:37.499Z,93.01
2022-12-24T00:16:37.522Z,93.43
2022-12-24T00:17:37.489Z,93.22
2022-12-24T00:18:43.318Z,92.81
2022-12-24T00:19:39.459Z,92.10
2022-12-24T00:20:37.449Z,92.10
2022-12-24T00:21:37.436Z,92.19
2022-12-24T00:22:37.434Z,92.10
2022-12-24T00:23:37.445Z,92.19
2022-12-24T00:24:37.438Z,92.19
2022-12-24T00:25:37.439Z,91.38
2022-12-24T00:27:28.631Z,91.48
2022-12-24T00:28:28.623Z,90.91
2022-12-24T00:29:28.620Z,91.17
2022-12-24T00:30:28.616Z,90.56
2022-12-24T00:31:28.665Z,91.07
2022-12-24T00:32:28.596Z,90.45
2022-12-24T00:33:28.586Z,90.66
2022-12-24T00:34:29.671Z,90.70
2022-12-24T00:35:29.670Z,90.09
2022-12-24T00:36:29.655Z,90.30
2022-12-24T00:37:29.660Z,89.89
2022-12-24T00:38:29.648Z,90.19
2022-12-24T00:39:30.569Z,89.78
2022-12-24T00:40:29.627Z,89.68
2022-12-24T00:41:30.501Z,89.47
2022-12-24T00:42:29.667Z,89.37
2022-12-24T00:43:29.618Z,89.47
2022-12-24T00:44:29.596Z,89.06
2022-12-24T00:45:29.590Z,89.47
2022-12-24T00:46:29.669Z,89.06
2022-12-24T00:47:30.586Z,89.58
2022-12-24T00:48:29.564Z,89.27
2022-12-24T00:49:29.549Z,89.17
2022-12-24T00:50:29.561Z,89.47
2022-12-24T00:51:29.687Z,89.23
2022-12-24T00:52:29.548Z,89.37
2022-12-24T00:53:29.517Z,89.37
2022-12-24T00:54:29.521Z,88.70
2022-12-24T00:55:29.506Z,89.17
2022-12-24T00:56:29.502Z,89.11
2022-12-24T00:57:29.492Z,89.17
2022-12-24T00:58:29.482Z,88.96
2022-12-24T00:59:29.476Z,89.51
2022-12-24T01:00:29.477Z,89.51
2022-12-24T01:01:29.699Z,89.00
2022-12-24T01:02:29.765Z,90.03
2022-12-24T01:03:29.528Z,89.62
2022-12-24T01:04:29.429Z,89.62
2022-12-24T01:05:30.077Z,89.62
2022-12-24T01:06:29.427Z,89.62
2022-12-24T01:07:29.405Z,89.45
2022-12-24T01:08:29.399Z,88.90
2022-12-24T01:09:29.398Z,88.29
2022-12-24T01:10:29.408Z,88.70
2022-12-24T01:11:29.378Z,88.29
2022-12-24T01:12:29.387Z,87.98
2022-12-24T01:13:29.369Z,87.73
2022-12-24T01:14:29.355Z,88.29
2022-12-24T01:15:29.567Z,87.98
2022-12-24T01:16:29.470Z,87.88
2022-12-24T01:17:29.325Z,87.77
2022-12-24T01:18:29.325Z,88.08
2022-12-24T01:19:30.081Z,87.47
2022-12-24T01:20:29.311Z,87.63
2022-12-24T01:21:29.318Z,88.14
2022-12-24T01:22:29.285Z,87.22
2022-12-24T01:23:29.301Z,86.71
2022-12-24T01:24:29.280Z,86.91
2022-12-24T01:25:29.271Z,86.71
2022-12-24T01:26:29.279Z,86.30
2022-12-24T01:27:29.248Z,86.10
2022-12-24T01:28:29.245Z,85.58
2022-12-24T01:29:29.227Z,84.87
2022-12-24T01:30:29.215Z,85.64
2022-12-24T01:31:29.405Z,85.64
2022-12-24T01:32:30.004Z,85.85
2022-12-24T01:33:29.192Z,85.75
2022-12-24T01:34:29.179Z,85.64
2022-12-24T01:35:30.084Z,85.85
2022-12-24T01:36:29.177Z,85.96
2022-12-24T01:37:29.158Z,85.89
2022-12-24T01:38:29.172Z,86.10
2022-12-24T01:39:29.180Z,85.85
2022-12-24T01:40:29.151Z,85.85
2022-12-24T01:41:29.144Z,85.99
2022-12-24T01:42:29.130Z,86.10
2022-12-24T01:43:29.121Z,86.71
2022-12-24T01:44:35.771Z,86.30
2022-12-24T01:45:31.112Z,86.30
2022-12-24T01:46:29.179Z,87.02
2022-12-24T01:47:29.089Z,86.55
2022-12-24T01:48:29.074Z,86.44
2022-12-24T01:49:29.074Z,86.71
2022-12-24T01:50:29.062Z,86.44
2022-12-24T01:51:29.091Z,86.44
2022-12-24T01:52:29.032Z,86.34
2022-12-24T01:53:29.035Z,86.65
2022-12-24T01:54:29.021Z,86.75
2022-12-24T01:55:29.011Z,86.44
2022-12-24T01:56:29.591Z,86.44
2022-12-24T01:57:29.024Z,86.61
2022-12-24T01:58:28.990Z,86.55
2022-12-24T01:59:28.981Z,85.93
2022-12-24T02:00:29.593Z,85.93
2022-12-24T02:01:29.115Z,85.89
2022-12-24T02:02:29.189Z,85.99
2022-12-24T02:03:29.013Z,85.89
2022-12-24T02:04:28.953Z,85.99
2022-12-24T02:05:28.933Z,85.89
2022-12-24T02:06:28.935Z,86.04
2022-12-24T02:07:29.608Z,86.20
2022-12-24T02:08:28.919Z,86.30
2022-12-24T02:09:28.921Z,86.55
2022-12-24T02:10:28.896Z,85.99
2022-12-24T02:11:28.872Z,85.83
2022-12-24T02:12:29.874Z,85.89
2022-12-24T02:13:28.876Z,85.89
2022-12-24T02:14:28.890Z,86.20
2022-12-24T02:15:28.856Z,85.89
2022-12-24T02:16:28.905Z,85.89
2022-12-24T02:17:28.835Z,85.99
2022-12-24T02:18:28.873Z,85.89
2022-12-24T02:19:28.819Z,85.89
2022-12-24T02:20:28.815Z,85.17
2022-12-24T02:21:28.797Z,85.07
2022-12-24T02:22:28.791Z,85.58
2022-12-24T02:23:28.798Z,85.48
2022-12-24T02:24:28.781Z,85.58
2022-12-24T02:25:28.765Z,85.48
2022-12-24T02:26:28.756Z,85.28
2022-12-24T02:27:28.759Z,85.17
2022-12-24T02:28:28.755Z,84.97
2022-12-24T02:29:28.754Z,84.56
2022-12-24T02:30:28.725Z,84.87
2022-12-24T02:31:28.747Z,85.17
2022-12-24T02:32:29.711Z,85.17
2022-12-24T02:33:28.729Z,85.48
2022-12-24T02:34:28.724Z,84.97
2022-12-24T02:35:28.689Z,84.97
2022-12-24T02:36:28.677Z,85.07
2022-12-24T02:37:28.674Z,85.48
2022-12-24T02:38:28.651Z,85.28
2022-12-24T02:39:29.654Z,84.77
2022-12-24T02:40:28.643Z,84.77
2022-12-24T02:41:28.638Z,85.07
2022-12-24T02:42:28.628Z,84.97
2022-12-24T02:43:28.618Z,84.97
2022-12-24T02:44:28.674Z,84.77
2022-12-24T02:45:28.595Z,84.97
2022-12-24T02:46:28.636Z,84.15
2022-12-24T02:47:28.593Z,84.25
2022-12-24T02:48:28.570Z,84.97
2022-12-24T02:49:28.575Z,84.05
2022-12-24T02:50:28.573Z,84.66
2022-12-24T02:51:28.582Z,84.15
2022-12-24T02:52:29.544Z,84.50
2022-12-24T02:53:29.105Z,84.29
2022-12-24T02:54:28.541Z,84.09
2022-12-24T02:55:28.563Z,84.39
2022-12-24T02:56:28.513Z,84.29
2022-12-24T02:57:28.534Z,84.29
2022-12-24T02:58:28.494Z,84.03
2022-12-24T02:59:28.500Z,84.80
2022-12-24T03:00:28.513Z,84.80
2022-12-24T03:01:28.583Z,84.91
2022-12-24T03:02:28.603Z,85.01
2022-12-24T03:03:28.464Z,84.60
2022-12-24T03:04:28.445Z,84.70
2022-12-24T03:05:28.984Z,83.98
2022-12-24T03:06:28.443Z,84.09
2022-12-24T03:07:28.422Z,83.47
2022-12-24T03:08:28.415Z,83.98
2022-12-24T03:09:28.424Z,83.27
2022-12-24T03:10:28.404Z,83.58
2022-12-24T03:11:28.390Z,82.86
2022-12-24T03:12:28.383Z,82.92
2022-12-24T03:13:28.383Z,82.92
2022-12-24T03:14:28.375Z,83.03
2022-12-24T03:15:28.360Z,82.62
2022-12-24T03:16:28.412Z,82.51
2022-12-24T03:17:28.340Z,82.62
2022-12-24T03:18:28.351Z,82.41
2022-12-24T03:19:28.331Z,82.00
2022-12-24T03:20:28.321Z,82.10
2022-12-24T03:21:28.312Z,82.10
2022-12-24T03:22:28.308Z,82.21
2022-12-24T03:23:28.323Z,82.71
2022-12-24T03:24:28.309Z,82.71
2022-12-24T03:25:28.280Z,83.03
2022-12-24T03:26:28.269Z,83.13
2022-12-24T03:27:28.268Z,83.13
2022-12-24T03:28:28.269Z,83.23
2022-12-24T03:29:28.252Z,82.51
2022-12-24T03:30:28.237Z,83.23
2022-12-24T03:31:28.238Z,83.44
2022-12-24T03:32:28.218Z,83.03
2022-12-24T03:33:28.250Z,83.23
2022-12-24T03:34:28.219Z,83.64
2022-12-24T03:35:28.195Z,83.54
2022-12-24T03:36:28.187Z,84.29
2022-12-24T03:37:28.179Z,84.25
2022-12-24T03:38:28.169Z,84.46
2022-12-24T03:39:28.173Z,84.46
2022-12-24T03:40:28.154Z,84.50
2022-12-24T03:41:28.146Z,84.25
2022-12-24T03:42:28.136Z,84.19
2022-12-24T03:43:28.143Z,84.91
2022-12-24T03:44:28.129Z,84.70
2022-12-24T03:45:28.165Z,84.91
2022-12-24T03:46:28.153Z,85.31
2022-12-24T03:47:28.103Z,85.52
2022-12-24T03:48:32.693Z,86.14
2022-12-24T03:49:30.085Z,85.42
2022-12-24T03:50:28.092Z,85.72
2022-12-24T03:51:28.066Z,85.93
2022-12-24T03:52:28.065Z,86.14
2022-12-24T03:53:28.056Z,86.85
2022-12-24T03:54:28.058Z,86.85
2022-12-24T03:55:28.034Z,86.85
2022-12-24T03:56:28.034Z,87.98
2022-12-24T03:57:28.025Z,87.88
2022-12-24T03:58:28.019Z,87.88
2022-12-24T03:59:28.011Z,88.53
2022-12-24T04:00:27.992Z,89.36
2022-12-24T04:01:28.047Z,89.39
2022-12-24T04:02:28.106Z,89.50
2022-12-24T04:03:28.054Z,89.39
2022-12-24T04:04:28.546Z,89.39
2022-12-24T04:05:27.970Z,89.50
2022-12-24T04:06:27.950Z,89.90
2022-12-24T04:07:27.941Z,89.60
2022-12-24T04:08:27.928Z,90.11
2022-12-24T04:09:27.916Z,90.32
2022-12-24T04:10:27.915Z,90.11
2022-12-24T04:11:27.908Z,90.48
2022-12-24T04:12:27.889Z,90.37
2022-12-24T04:13:27.888Z,90.37
2022-12-24T04:14:27.872Z,90.69
2022-12-24T04:15:28.550Z,90.62
2022-12-24T04:16:27.875Z,90.83
2022-12-24T04:17:27.867Z,90.83
2022-12-24T04:18:27.892Z,91.14
2022-12-24T04:19:27.857Z,91.59
2022-12-24T04:20:27.816Z,91.55
2022-12-24T04:21:28.826Z,91.75
2022-12-24T04:22:27.819Z,92.00
2022-12-24T04:23:27.797Z,91.80
2022-12-24T04:24:27.796Z,92.00
2022-12-24T04:25:27.793Z,92.41
2022-12-24T04:26:28.545Z,92.41
2022-12-24T04:27:30.616Z,92.36
2022-12-24T04:28:28.771Z,92.41
2022-12-24T04:29:27.767Z,92.66
2022-12-24T04:30:27.742Z,91.94
2022-12-24T04:31:28.616Z,92.76
2022-12-24T04:32:27.728Z,92.55
2022-12-24T04:33:27.729Z,93.17
2022-12-24T04:34:27.720Z,93.12
2022-12-24T04:35:27.703Z,93.01
2022-12-24T04:36:27.694Z,93.32
2022-12-24T04:37:27.686Z,93.73
2022-12-24T04:38:27.682Z,93.73
2022-12-24T04:39:27.670Z,93.63
2022-12-24T04:40:28.553Z,94.34
2022-12-24T04:41:27.664Z,94.34
2022-12-24T04:42:27.642Z,94.80
2022-12-24T04:43:27.653Z,93.93
2022-12-24T04:44:27.639Z,94.59
2022-12-24T04:45:27.673Z,94.55
2022-12-24T04:46:27.718Z,94.34
2022-12-24T04:47:27.615Z,94.59
2022-12-24T04:48:27.606Z,94.39
2022-12-24T04:49:27.591Z,95.01
2022-12-24T04:50:27.579Z,95.10
2022-12-24T04:51:27.577Z,94.70
2022-12-24T04:52:27.558Z,94.29
2022-12-24T04:53:27.621Z,94.70
2022-12-24T04:54:27.661Z,94.49
2022-12-24T04:55:27.545Z,93.87
2022-12-24T04:56:27.528Z,93.26
2022-12-24T04:57:27.522Z,93.05
2022-12-24T04:58:27.525Z,93.26
2022-12-24T04:59:27.511Z,93.46
2022-12-24T05:00:27.496Z,92.54
2022-12-24T05:01:27.578Z,92.44
2022-12-24T05:02:27.723Z,92.70
2022-12-24T05:03:27.565Z,92.64
2022-12-24T05:04:27.476Z,92.70
2022-12-24T05:05:27.463Z,92.60
2022-12-24T05:06:27.441Z,92.50
2022-12-24T05:07:27.439Z,92.19
2022-12-24T05:08:27.433Z,92.50
2022-12-24T05:09:27.438Z,92.29
2022-12-24T05:10:27.426Z,92.08
2022-12-24T05:11:27.447Z,92.19
2022-12-24T05:12:27.400Z,91.99
2022-12-24T05:13:34.380Z,91.88
2022-12-24T05:14:29.393Z,91.78
2022-12-24T05:15:27.372Z,91.78
2022-12-24T05:16:27.425Z,91.57
2022-12-24T05:17:27.377Z,91.67
2022-12-24T05:18:27.365Z,91.78
2022-12-24T05:19:27.355Z,91.67
2022-12-24T05:20:27.335Z,91.47
2022-12-24T05:21:27.330Z,91.37
2022-12-24T05:22:27.315Z,91.37
2022-12-24T05:23:27.320Z,91.57
2022-12-24T05:24:27.334Z,91.37
2022-12-24T05:25:27.302Z,91.57
2022-12-24T05:26:27.286Z,91.67
2022-12-24T05:27:27.299Z,91.37
2022-12-24T05:28:27.297Z,91.57
2022-12-24T05:29:27.263Z,91.47
2022-12-24T05:30:27.306Z,91.88
2022-12-24T05:31:27.239Z,91.57
2022-12-24T05:32:27.230Z,91.67
2022-12-24T05:33:27.258Z,91.37
2022-12-24T05:34:27.212Z,90.95
2022-12-24T05:35:27.207Z,91.06
2022-12-24T05:36:28.199Z,90.65
2022-12-24T05:37:27.204Z,90.09
2022-12-24T05:38:27.213Z,89.78
2022-12-24T05:39:27.190Z,89.17
2022-12-24T05:40:27.190Z,89.37
2022-12-24T05:41:27.198Z,89.89
2022-12-24T05:42:27.150Z,89.84
2022-12-24T05:43:28.161Z,89.37
2022-12-24T05:44:27.139Z,88.92
2022-12-24T05:45:27.159Z,88.82
2022-12-24T05:46:27.174Z,88.82
2022-12-24T05:47:27.123Z,88.92
2022-12-24T05:48:27.125Z,88.72
2022-12-24T05:49:27.112Z,88.82
2022-12-24T05:50:27.091Z,89.54
2022-12-24T05:51:27.097Z,89.75
2022-12-24T05:52:27.095Z,89.84
2022-12-24T05:53:27.073Z,90.32
2022-12-24T05:54:27.065Z,90.05
2022-12-24T05:55:27.110Z,90.22
2022-12-24T05:56:27.043Z,90.77
2022-12-24T05:57:27.050Z,90.87
2022-12-24T05:58:27.039Z,90.87
2022-12-24T05:59:27.039Z,91.14
2022-12-24T06:00:27.009Z,90.56
2022-12-24T06:01:27.057Z,90.97
2022-12-24T06:02:27.055Z,91.28
2022-12-24T06:03:26.996Z,91.59
2022-12-24T06:04:29.146Z,91.38
2022-12-24T06:05:28.574Z,91.59
2022-12-24T06:06:26.993Z,91.69
2022-12-24T06:07:26.975Z,91.69
2022-12-24T06:08:26.947Z,92.00
2022-12-24T06:09:26.945Z,91.80
2022-12-24T06:10:26.945Z,92.31
2022-12-24T06:11:26.923Z,92.10
2022-12-24T06:12:26.921Z,92.10
2022-12-24T06:13:26.915Z,92.31
2022-12-24T06:14:26.907Z,92.06
2022-12-24T06:15:26.893Z,92.51
2022-12-24T06:16:27.755Z,93.44
2022-12-24T06:17:26.876Z,92.93
2022-12-24T06:18:26.886Z,93.27
2022-12-24T06:19:26.867Z,94.30
2022-12-24T06:20:26.849Z,94.51
2022-12-24T06:21:26.844Z,94.45
2022-12-24T06:22:26.836Z,94.51
2022-12-24T06:23:28.682Z,94.61
2022-12-24T06:24:26.831Z,94.51
2022-12-24T06:25:26.809Z,94.34
2022-12-24T06:26:26.800Z,94.65
2022-12-24T06:27:26.804Z,94.61
2022-12-24T06:28:28.808Z,95.02
2022-12-24T06:29:27.561Z,94.81
2022-12-24T06:30:27.782Z,94.65
2022-12-24T06:31:26.840Z,94.45
2022-12-24T06:32:26.759Z,95.12
2022-12-24T06:33:26.754Z,94.92
2022-12-24T06:34:27.654Z,94.61
2022-12-24T06:35:26.733Z,94.30
2022-12-24T06:36:26.746Z,94.71
2022-12-24T06:37:27.654Z,94.61
2022-12-24T06:38:26.720Z,94.51
2022-12-24T06:39:26.710Z,94.30
2022-12-24T06:40:26.692Z,94.51
2022-12-24T06:41:26.697Z,94.20
2022-12-24T06:42:26.679Z,94.20
2022-12-24T06:43:26.753Z,94.15
2022-12-24T06:44:26.671Z,93.54
2022-12-24T06:45:26.683Z,93.38
2022-12-24T06:46:26.763Z,92.76
2022-12-24T06:47:26.637Z,92.76
2022-12-24T06:48:26.630Z,93.02
2022-12-24T06:49:26.753Z,93.07
2022-12-24T06:50:26.618Z,92.46
2022-12-24T06:51:26.622Z,92.41
2022-12-24T06:52:26.606Z,92.04
2022-12-24T06:53:26.596Z,92.35
2022-12-24T06:54:26.585Z,92.46
2022-12-24T06:55:26.600Z,92.66
2022-12-24T06:56:26.586Z,92.04
2022-12-24T06:57:26.570Z,92.55
2022-12-24T06:58:26.556Z,92.46
2022-12-24T06:59:26.585Z,92.35
2022-12-24T07:00:26.680Z,92.46
2022-12-24T07:01:26.680Z,91.49
2022-12-24T07:02:28.240Z,90.56
2022-12-24T07:03:26.563Z,90.67
2022-12-24T07:04:26.601Z,90.77
2022-12-24T07:05:26.519Z,90.97
2022-12-24T07:06:26.531Z,90.97
2022-12-24T07:07:26.480Z,90.93
2022-12-24T07:08:26.478Z,90.46
2022-12-24T07:09:26.484Z,90.52
2022-12-24T07:10:26.459Z,90.26
2022-12-24T07:11:26.469Z,90.56
2022-12-24T07:12:26.473Z,90.05
2022-12-24T07:13:26.439Z,90.16
2022-12-24T07:14:26.424Z,90.26
2022-12-24T07:15:26.419Z,90.36
2022-12-24T07:16:26.577Z,90.30
2022-12-24T07:17:26.624Z,90.16
2022-12-24T07:18:27.114Z,90.61
2022-12-24T07:19:27.092Z,90.20
2022-12-24T07:20:26.382Z,90.40
2022-12-24T07:21:26.373Z,90.71
2022-12-24T07:22:26.371Z,91.02
2022-12-24T07:23:26.356Z,91.02
2022-12-24T07:24:26.368Z,91.02
2022-12-24T07:25:26.362Z,91.02
2022-12-24T07:26:26.315Z,90.97
2022-12-24T07:27:26.326Z,90.87
2022-12-24T07:28:28.184Z,90.71
2022-12-24T07:29:27.307Z,90.87
2022-12-24T07:30:26.298Z,90.56
2022-12-24T07:31:26.764Z,90.46
2022-12-24T07:32:26.282Z,90.36
2022-12-24T07:33:26.319Z,90.71
2022-12-24T07:34:26.267Z,90.09
2022-12-24T07:35:26.252Z,90.91
2022-12-24T07:36:26.250Z,90.81
2022-12-24T07:37:26.237Z,91.42
2022-12-24T07:38:26.225Z,91.47
2022-12-24T07:39:26.226Z,91.16
2022-12-24T07:40:26.225Z,91.47
2022-12-24T07:41:26.208Z,91.67
2022-12-24T07:42:26.199Z,91.78
2022-12-24T07:43:26.222Z,91.67
2022-12-24T07:44:26.186Z,92.19
2022-12-24T07:45:26.178Z,92.19
2022-12-24T07:46:27.148Z,92.60
2022-12-24T07:47:26.173Z,92.64
2022-12-24T07:48:27.146Z,92.70
2022-12-24T07:49:26.674Z,92.64
2022-12-24T07:50:26.127Z,92.19
2022-12-24T07:51:26.125Z,92.64
2022-12-24T07:52:26.117Z,93.67
2022-12-24T07:53:26.113Z,92.70
2022-12-24T07:54:26.097Z,92.40
2022-12-24T07:55:26.084Z,92.70
2022-12-24T07:56:26.097Z,92.60
2022-12-24T07:57:26.612Z,92.40
2022-12-24T07:58:26.069Z,92.29
2022-12-24T07:59:26.052Z,92.60
2022-12-24T08:00:26.086Z,92.50
2022-12-24T08:01:26.182Z,92.60
2022-12-24T08:02:26.267Z,92.80
2022-12-24T08:03:26.241Z,92.33
2022-12-24T08:04:26.009Z,92.50
2022-12-24T08:05:26.025Z,92.23
2022-12-24T08:06:26.000Z,93.26
2022-12-24T08:07:25.990Z,93.36
2022-12-24T08:08:26.000Z,93.16
2022-12-24T08:09:25.990Z,93.12
2022-12-24T08:10:26.016Z,93.57
2022-12-24T08:11:25.954Z,93.57
2022-12-24T08:12:26.004Z,93.16
2022-12-24T08:13:25.944Z,93.16
2022-12-24T08:14:25.958Z,93.36
2022-12-24T08:15:25.929Z,93.12
2022-12-24T08:16:25.958Z,93.21
2022-12-24T08:17:31.979Z,92.50
2022-12-24T08:18:28.215Z,92.29
2022-12-24T08:19:26.892Z,92.60
2022-12-24T08:20:25.912Z,92.50
2022-12-24T08:21:25.878Z,92.50
2022-12-24T08:22:26.681Z,91.88
2022-12-24T08:23:25.863Z,91.74
2022-12-24T08:24:25.863Z,91.63
2022-12-24T08:25:25.871Z,91.42
2022-12-24T08:26:26.637Z,91.22
2022-12-24T08:27:25.824Z,91.22
2022-12-24T08:28:25.827Z,91.33
2022-12-24T08:29:25.803Z,91.42
2022-12-24T08:30:25.865Z,91.08
2022-12-24T08:31:25.826Z,91.08
2022-12-24T08:32:25.804Z,91.49
2022-12-24T08:33:25.782Z,91.18
2022-12-24T08:34:25.768Z,90.97
2022-12-24T08:35:25.763Z,90.67
2022-12-24T08:36:25.743Z,91.18
2022-12-24T08:37:25.742Z,91.08
2022-12-24T08:38:25.736Z,91.38
2022-12-24T08:39:25.723Z,91.49
2022-12-24T08:40:25.868Z,91.69
2022-12-24T08:41:25.710Z,91.38
2022-12-24T08:42:25.754Z,92.10
2022-12-24T08:43:25.707Z,91.90
2022-12-24T08:44:25.682Z,91.69
2022-12-24T08:45:25.695Z,91.90
2022-12-24T08:46:26.766Z,92.00
2022-12-24T08:47:25.653Z,92.41
2022-12-24T08:48:25.696Z,92.21
2022-12-24T08:49:28.115Z,92.21
2022-12-24T08:50:25.634Z,92.16
2022-12-24T08:51:28.606Z,92.00
2022-12-24T08:52:30.144Z,92.00
2022-12-24T08:53:25.615Z,92.27
2022-12-24T08:54:25.607Z,92.36
2022-12-24T08:55:25.598Z,92.31
2022-12-24T08:56:25.620Z,92.06
2022-12-24T08:57:25.601Z,91.75
2022-12-24T08:58:26.092Z,92.21
2022-12-24T08:59:28.200Z,92.27
2022-12-24T09:00:26.548Z,91.96
2022-12-24T09:01:27.280Z,91.55
2022-12-24T09:02:28.324Z,91.96
2022-12-24T09:03:28.030Z,92.27
2022-12-24T09:04:26.556Z,91.75
2022-12-24T09:05:28.107Z,91.71
2022-12-24T09:06:25.524Z,91.65
2022-12-24T09:07:25.507Z,91.20
2022-12-24T09:08:25.535Z,91.24
2022-12-24T09:09:25.486Z,90.48
2022-12-24T09:10:25.478Z,90.62
2022-12-24T09:11:26.172Z,91.14
2022-12-24T09:12:25.455Z,91.09
2022-12-24T09:13:25.456Z,91.20
2022-12-24T09:14:25.438Z,90.79
2022-12-24T09:15:26.126Z,90.69
2022-12-24T09:16:25.503Z,89.97
2022-12-24T09:17:25.429Z,90.58
2022-12-24T09:18:25.493Z,90.28
2022-12-24T09:19:26.141Z,90.48
2022-12-24T09:20:27.191Z,90.48
2022-12-24T09:21:37.633Z,91.09
2022-12-24T09:22:25.378Z,90.42
2022-12-24T09:23:25.580Z,90.89
2022-12-24T09:24:27.363Z,90.62
2022-12-24T09:26:13.741Z,90.62
2022-12-24T09:27:13.745Z,90.69
2022-12-24T09:28:13.736Z,90.62
2022-12-24T09:29:14.724Z,90.69
2022-12-24T09:30:13.716Z,90.79
2022-12-24T09:31:14.846Z,90.69
2022-12-24T09:32:14.903Z,90.17
2022-12-24T09:33:14.776Z,89.97
2022-12-24T09:34:15.178Z,90.17
2022-12-24T09:35:14.778Z,90.17
2022-12-24T09:36:14.757Z,90.37
2022-12-24T09:37:14.732Z,90.37
2022-12-24T09:38:14.741Z,90.79
2022-12-24T09:39:14.728Z,90.42
2022-12-24T09:40:14.708Z,91.09
2022-12-24T09:41:15.556Z,90.48
2022-12-24T09:42:14.688Z,90.48
2022-12-24T09:43:14.695Z,90.28
2022-12-24T09:44:14.700Z,90.03
2022-12-24T09:45:15.671Z,90.37
2022-12-24T09:46:15.687Z,90.07
2022-12-24T09:47:14.651Z,90.03
2022-12-24T09:48:14.641Z,90.28
2022-12-24T09:49:14.641Z,90.07
2022-12-24T09:50:14.629Z,90.13
2022-12-24T09:51:14.633Z,90.13
2022-12-24T09:52:14.616Z,90.13
2022-12-24T09:53:15.170Z,90.37
2022-12-24T09:54:15.100Z,90.34
2022-12-24T09:55:14.592Z,90.34
2022-12-24T09:56:14.579Z,90.84
2022-12-24T09:57:14.604Z,90.84
2022-12-24T09:58:14.577Z,90.95
2022-12-24T09:59:18.174Z,90.95
2022-12-24T10:00:16.214Z,91.26
2022-12-24T10:01:15.326Z,91.36
2022-12-24T10:02:18.303Z,91.36
2022-12-24T10:03:14.591Z,91.36
2022-12-24T10:04:19.444Z,91.77
2022-12-24T10:05:18.319Z,92.02
2022-12-24T10:06:14.505Z,92.18
2022-12-24T10:07:14.589Z,92.38
2022-12-24T10:08:20.211Z,92.28
2022-12-24T10:09:17.196Z,92.28
2022-12-24T10:10:14.481Z,91.87
2022-12-24T10:11:14.467Z,92.18
2022-12-24T10:12:14.464Z,92.08
2022-12-24T10:13:14.469Z,91.93
2022-12-24T10:14:14.456Z,92.03
2022-12-24T10:15:14.433Z,91.83
2022-12-24T10:16:14.547Z,91.38
2022-12-24T10:17:14.509Z,90.77
2022-12-24T10:18:14.419Z,90.77
2022-12-24T10:19:14.408Z,90.62
2022-12-24T10:20:14.403Z,90.62
2022-12-24T10:21:14.387Z,90.37
2022-12-24T10:22:15.387Z,89.97
2022-12-24T10:23:14.398Z,89.76
2022-12-24T10:24:14.354Z,89.25
2022-12-24T10:25:14.355Z,89.00
2022-12-24T10:26:14.341Z,88.74
2022-12-24T10:27:14.362Z,88.74
2022-12-24T10:28:14.382Z,88.74
2022-12-24T10:29:15.110Z,88.70
2022-12-24T10:30:17.139Z,87.98
2022-12-24T10:31:15.352Z,87.88
2022-12-24T10:32:14.291Z,87.88
2022-12-24T10:33:14.292Z,87.88
2022-12-24T10:34:14.345Z,86.76
2022-12-24T10:35:14.279Z,87.98
2022-12-24T10:36:14.271Z,87.67
2022-12-24T10:37:14.272Z,87.26
2022-12-24T10:38:14.239Z,87.77
2022-12-24T10:39:14.251Z,86.55
2022-12-24T10:40:14.226Z,86.85
2022-12-24T10:41:14.226Z,86.30
2022-12-24T10:42:14.218Z,86.10
2022-12-24T10:43:14.203Z,85.89
2022-12-24T10:44:14.208Z,85.89
2022-12-24T10:45:14.192Z,85.49
2022-12-24T10:46:14.304Z,85.49
2022-12-24T10:47:14.181Z,85.65
2022-12-24T10:48:14.174Z,85.35
2022-12-24T10:49:14.168Z,85.28
2022-12-24T10:50:14.146Z,85.65
2022-12-24T10:51:15.117Z,85.49
2022-12-24T10:52:14.145Z,85.45
2022-12-24T10:53:14.121Z,85.49
2022-12-24T10:54:14.111Z,85.55
2022-12-24T10:55:16.715Z,85.65
2022-12-24T21:26:37.201Z,99.99
2022-12-24T21:27:37.173Z,99.99
2022-12-24T21:28:40.030Z,99.99
2022-12-24T21:29:38.237Z,99.99
2022-12-24T21:30:38.286Z,99.99
2022-12-24T21:31:39.530Z,99.99
2022-12-24T21:32:38.252Z,99.99
2022-12-24T21:33:38.708Z,99.99
2022-12-24T21:34:40.038Z,99.99
2022-12-24T21:35:38.192Z,99.99
2022-12-24T21:36:38.196Z,99.99
2022-12-24T21:37:38.192Z,99.99
2022-12-24T21:38:38.174Z,99.99
2022-12-24T21:39:38.193Z,99.99
2022-12-24T21:40:38.151Z,99.99
2022-12-24T21:41:38.143Z,99.85
2022-12-24T21:42:39.042Z,99.95
2022-12-24T21:43:38.144Z,99.99
2022-12-24T21:44:38.124Z,99.85
2022-12-24T21:45:38.170Z,99.99
2022-12-24T21:46:38.152Z,99.99
2022-12-24T21:47:38.128Z,99.99
2022-12-24T21:48:38.090Z,99.99
2022-12-24T21:49:38.076Z,99.99
2022-12-24T21:50:39.027Z,99.99
2022-12-24T21:51:38.088Z,99.99
2022-12-24T21:52:38.072Z,99.99
2022-12-24T21:53:38.046Z,99.99
2022-12-24T21:54:38.038Z,99.99
2022-12-24T21:55:38.029Z,99.99
2022-12-24T21:56:38.078Z,99.99
2022-12-24T21:57:38.050Z,99.99
2022-12-24T21:58:38.052Z,99.99
2022-12-24T21:59:38.007Z,99.99
2022-12-24T22:01:47.911Z,99.99
2022-12-24T22:02:49.176Z,99.99
2022-12-24T22:03:49.045Z,99.99
2022-12-24T22:04:50.948Z,99.49
2022-12-24T22:05:50.312Z,99.96
2022-12-24T22:06:48.375Z,99.44
2022-12-24T22:07:48.263Z,99.86
2022-12-24T22:08:48.251Z,99.86
2022-12-24T22:09:48.247Z,99.55
2022-12-24T22:10:48.235Z,99.76
2022-12-24T22:11:53.981Z,99.65
2022-12-24T22:12:50.221Z,99.76
2022-12-24T22:13:48.239Z,99.44
2022-12-24T22:14:48.205Z,99.76
2022-12-24T22:15:48.860Z,98.93
2022-12-24T22:16:48.318Z,99.14
2022-12-24T22:17:48.179Z,99.04
2022-12-24T22:18:48.174Z,98.10
2022-12-24T22:19:48.188Z,97.89
2022-12-24T22:20:48.182Z,98.72
2022-12-24T22:21:48.954Z,99.24
2022-12-24T22:22:49.891Z,97.89
2022-12-24T22:23:48.138Z,97.79
2022-12-24T22:24:48.133Z,98.00
2022-12-24T22:25:48.155Z,98.10
2022-12-24T22:26:48.116Z,98.10
2022-12-24T22:27:48.109Z,99.24
2022-12-24T22:28:48.104Z,99.14
2022-12-24T22:29:48.873Z,99.14
2022-12-24T22:30:48.128Z,98.93
2022-12-24T22:31:48.954Z,98.00
2022-12-24T22:32:49.079Z,98.62
2022-12-24T22:33:48.059Z,98.10
2022-12-24T22:34:48.050Z,98.21
2022-12-24T22:35:48.058Z,98.31
2022-12-24T22:36:48.035Z,98.00
2022-12-24T22:37:48.033Z,97.79
2022-12-24T22:38:48.051Z,97.49
2022-12-24T22:39:48.027Z,98.31
2022-12-24T22:40:47.997Z,97.59
2022-12-24T22:41:47.997Z,97.49
2022-12-24T22:42:47.991Z,97.59
2022-12-24T22:43:47.983Z,97.79
2022-12-24T22:44:48.005Z,97.79
2022-12-24T22:45:48.002Z,97.89
2022-12-24T22:46:47.947Z,98.31
2022-12-24T22:47:47.934Z,98.41
2022-12-24T22:48:47.951Z,97.59
2022-12-24T22:49:47.938Z,97.38
2022-12-24T22:50:47.940Z,97.79
2022-12-24T22:51:47.910Z,97.79
2022-12-24T22:52:47.914Z,97.69
2022-12-24T22:53:47.966Z,97.38
2022-12-24T22:54:47.926Z,98.00
2022-12-24T22:55:47.886Z,98.21
2022-12-24T22:56:47.888Z,98.21
2022-12-24T22:57:47.869Z,98.10
2022-12-24T22:58:47.885Z,98.21
2022-12-24T22:59:47.847Z,97.96
2022-12-24T23:00:47.845Z,98.16
2022-12-24T23:01:48.057Z,98.37
2022-12-24T23:02:47.915Z,98.72
2022-12-24T23:03:47.843Z,98.37
2022-12-24T23:04:47.821Z,98.83
2022-12-24T23:05:47.799Z,98.93
2022-12-24T23:06:47.796Z,98.83
2022-12-24T23:07:47.787Z,99.51
2022-12-24T23:08:47.794Z,98.93
2022-12-24T23:09:47.779Z,99.14
2022-12-24T23:10:47.755Z,98.88
2022-12-24T23:11:47.751Z,98.93
2022-12-24T23:12:47.773Z,99.44
2022-12-24T23:13:47.740Z,99.24
2022-12-24T23:14:47.732Z,99.04
2022-12-24T23:15:47.748Z,98.93
2022-12-24T23:16:47.716Z,99.44
2022-12-24T23:17:47.707Z,99.76
2022-12-24T23:18:47.714Z,99.70
2022-12-24T23:19:47.707Z,99.76
2022-12-24T23:20:47.757Z,99.55
2022-12-24T23:21:47.679Z,99.76
2022-12-24T23:22:47.675Z,99.76
2022-12-24T23:23:47.659Z,99.24
2022-12-24T23:24:47.662Z,99.55
2022-12-24T23:25:47.653Z,99.76